sensor_id;sensor_type;location;lat;lon;timestamp;pressure;altitude;pressure_sealevel;temperature;humidity
35649;BME280;21768;48.562;13.414;2022-09-09T00:00:40;97155.84;;;15.84;76.17
35649;BME280;21768;48.562;13.414;2022-09-09T00:03:14;97152.47;;;15.83;76.00
35649;BME280;21768;48.562;13.414;2022-09-09T00:08:50;97152.22;;;15.77;76.11
35649;BME280;21768;48.562;13.414;2022-09-09T00:11:25;97150.47;;;15.76;76.13
35649;BME280;21768;48.562;13.414;2022-09-09T00:13:57;97158.00;;;15.73;75.87
35649;BME280;21768;48.562;13.414;2022-09-09T00:16:27;97157.06;;;15.71;76.13
35649;BME280;21768;48.562;13.414;2022-09-09T00:21:40;97147.56;;;15.67;75.82
35649;BME280;21768;48.562;13.414;2022-09-09T00:24:14;97147.34;;;15.62;75.96
35649;BME280;21768;48.562;13.414;2022-09-09T00:26:48;97143.78;;;15.57;76.12
35649;BME280;21768;48.562;13.414;2022-09-09T00:29:35;97145.34;;;15.55;76.17
35649;BME280;21768;48.562;13.414;2022-09-09T00:32:16;97136.97;;;15.56;76.07
35649;BME280;21768;48.562;13.414;2022-09-09T00:34:49;97144.66;;;15.58;76.13
35649;BME280;21768;48.562;13.414;2022-09-09T00:37:15;97152.13;;;15.55;76.17
35649;BME280;21768;48.562;13.414;2022-09-09T00:39:42;97148.56;;;15.51;76.23
35649;BME280;21768;48.562;13.414;2022-09-09T00:42:24;97155.28;;;15.49;76.41
35649;BME280;21768;48.562;13.414;2022-09-09T00:47:51;97143.50;;;15.51;76.39
35649;BME280;21768;48.562;13.414;2022-09-09T00:50:32;97136.59;;;15.49;76.49
35649;BME280;21768;48.562;13.414;2022-09-09T00:56:06;97134.66;;;15.43;76.42
35649;BME280;21768;48.562;13.414;2022-09-09T00:58:33;97136.34;;;15.43;76.57
35649;BME280;21768;48.562;13.414;2022-09-09T01:01:09;97139.00;;;15.46;76.66
35649;BME280;21768;48.562;13.414;2022-09-09T01:03:52;97142.56;;;15.49;76.58
35649;BME280;21768;48.562;13.414;2022-09-09T01:09:26;97143.22;;;15.45;76.62
35649;BME280;21768;48.562;13.414;2022-09-09T01:22:26;97146.75;;;15.68;76.90
35649;BME280;21768;48.562;13.414;2022-09-09T01:25:18;97150.22;;;15.70;76.98
35649;BME280;21768;48.562;13.414;2022-09-09T01:27:46;97153.72;;;15.72;76.90
35649;BME280;21768;48.562;13.414;2022-09-09T01:30:16;97155.50;;;15.75;76.99
35649;BME280;21768;48.562;13.414;2022-09-09T01:32:45;97159.72;;;15.74;77.04
35649;BME280;21768;48.562;13.414;2022-09-09T01:35:43;97157.06;;;15.71;77.21
35649;BME280;21768;48.562;13.414;2022-09-09T01:38:05;97154.56;;;15.73;77.23
35649;BME280;21768;48.562;13.414;2022-09-09T01:40:31;97157.06;;;15.71;77.26
35649;BME280;21768;48.562;13.414;2022-09-09T01:42:57;97157.78;;;15.69;77.42
35649;BME280;21768;48.562;13.414;2022-09-09T01:45:23;97156.00;;;15.66;77.47
35649;BME280;21768;48.562;13.414;2022-09-09T01:47:49;97157.91;;;15.72;77.48
35649;BME280;21768;48.562;13.414;2022-09-09T01:50:16;97162.13;;;15.71;77.47
35649;BME280;21768;48.562;13.414;2022-09-09T01:52:42;97164.75;;;15.73;77.49
35649;BME280;21768;48.562;13.414;2022-09-09T01:55:09;97162.28;;;15.74;77.51
35649;BME280;21768;48.562;13.414;2022-09-09T02:00:23;97168.72;;;15.66;77.63
35649;BME280;21768;48.562;13.414;2022-09-09T02:08:31;97178.13;;;15.69;78.05
35649;BME280;21768;48.562;13.414;2022-09-09T02:11:14;97177.28;;;15.68;78.02
35649;BME280;21768;48.562;13.414;2022-09-09T02:13:43;97167.97;;;15.69;77.93
35649;BME280;21768;48.562;13.414;2022-09-09T02:21:39;97179.28;;;15.75;77.78
35649;BME280;21768;48.562;13.414;2022-09-09T02:24:07;97175.78;;;15.73;77.79
35649;BME280;21768;48.562;13.414;2022-09-09T02:26:38;97169.84;;;15.73;77.78
35649;BME280;21768;48.562;13.414;2022-09-09T02:29:09;97169.78;;;15.71;77.61
35649;BME280;21768;48.562;13.414;2022-09-09T02:31:38;97173.00;;;15.67;77.64
35649;BME280;21768;48.562;13.414;2022-09-09T02:34:05;97176.28;;;15.64;77.82
35649;BME280;21768;48.562;13.414;2022-09-09T02:36:33;97172.78;;;15.62;77.84
35649;BME280;21768;48.562;13.414;2022-09-09T02:39:00;97174.59;;;15.65;78.02
35649;BME280;21768;48.562;13.414;2022-09-09T02:41:31;97167.97;;;15.69;77.68
35649;BME280;21768;48.562;13.414;2022-09-09T02:43:57;97173.19;;;15.72;77.57
35649;BME280;21768;48.562;13.414;2022-09-09T02:52:19;97175.84;;;15.75;77.69
35649;BME280;21768;48.562;13.414;2022-09-09T02:54:47;97178.41;;;15.75;77.68
35649;BME280;21768;48.562;13.414;2022-09-09T02:57:28;97179.13;;;15.72;77.42
35649;BME280;21768;48.562;13.414;2022-09-09T02:59:57;97167.03;;;15.67;77.70
35649;BME280;21768;48.562;13.414;2022-09-09T03:02:23;97169.50;;;15.65;77.95
35649;BME280;21768;48.562;13.414;2022-09-09T03:04:49;97163.50;;;15.63;77.78
35649;BME280;21768;48.562;13.414;2022-09-09T03:07:17;97159.94;;;15.59;77.79
35649;BME280;21768;48.562;13.414;2022-09-09T03:09:43;97153.09;;;15.57;77.39
35649;BME280;21768;48.562;13.414;2022-09-09T03:12:09;97171.53;;;15.53;77.17
35649;BME280;21768;48.562;13.414;2022-09-09T03:14:36;97166.44;;;15.53;77.42
35649;BME280;21768;48.562;13.414;2022-09-09T03:17:04;97170.72;;;15.54;77.36
35649;BME280;21768;48.562;13.414;2022-09-09T03:19:30;97157.88;;;15.51;77.36
35649;BME280;21768;48.562;13.414;2022-09-09T03:21:55;97148.50;;;15.50;77.42
35649;BME280;21768;48.562;13.414;2022-09-09T03:24:21;97152.66;;;15.48;77.52
35649;BME280;21768;48.562;13.414;2022-09-09T03:26:48;97160.16;;;15.45;77.68
35649;BME280;21768;48.562;13.414;2022-09-09T03:29:13;97160.09;;;15.43;77.83
35649;BME280;21768;48.562;13.414;2022-09-09T03:31:40;97158.41;;;15.44;77.70
35649;BME280;21768;48.562;13.414;2022-09-09T03:34:05;97157.53;;;15.43;77.95
35649;BME280;21768;48.562;13.414;2022-09-09T03:36:31;97164.03;;;15.37;77.70
35649;BME280;21768;48.562;13.414;2022-09-09T03:38:57;97166.34;;;15.30;77.80
35649;BME280;21768;48.562;13.414;2022-09-09T03:41:25;97172.22;;;15.29;77.87
35649;BME280;21768;48.562;13.414;2022-09-09T03:43:51;97164.81;;;15.34;78.02
35649;BME280;21768;48.562;13.414;2022-09-09T03:46:18;97144.56;;;15.37;77.79
35649;BME280;21768;48.562;13.414;2022-09-09T03:48:43;97155.00;;;15.43;77.75
35649;BME280;21768;48.562;13.414;2022-09-09T03:51:09;97152.53;;;15.45;77.75
35649;BME280;21768;48.562;13.414;2022-09-09T03:53:36;97153.25;;;15.42;77.47
35649;BME280;21768;48.562;13.414;2022-09-09T03:56:03;97154.69;;;15.36;77.60
35649;BME280;21768;48.562;13.414;2022-09-09T03:58:29;97156.41;;;15.37;77.80
35649;BME280;21768;48.562;13.414;2022-09-09T04:01:00;97147.69;;;15.30;77.80
35649;BME280;21768;48.562;13.414;2022-09-09T04:03:26;97150.09;;;15.27;77.81
35649;BME280;21768;48.562;13.414;2022-09-09T04:05:53;97146.69;;;15.26;78.15
35649;BME280;21768;48.562;13.414;2022-09-09T04:08:22;97145.81;;;15.26;78.13
35649;BME280;21768;48.562;13.414;2022-09-09T04:10:50;97145.81;;;15.26;78.07
35649;BME280;21768;48.562;13.414;2022-09-09T04:13:16;97143.94;;;15.22;78.15
35649;BME280;21768;48.562;13.414;2022-09-09T04:15:44;97136.09;;;15.17;78.36
35649;BME280;21768;48.562;13.414;2022-09-09T04:18:10;97129.56;;;15.22;78.42
35649;BME280;21768;48.562;13.414;2022-09-09T04:20:37;97134.84;;;15.27;78.42
35649;BME280;21768;48.562;13.414;2022-09-09T04:23:04;97139.13;;;15.28;78.44
35649;BME280;21768;48.562;13.414;2022-09-09T04:25:30;97131.56;;;15.29;78.13
35649;BME280;21768;48.562;13.414;2022-09-09T04:27:57;97138.38;;;15.30;78.07
35649;BME280;21768;48.562;13.414;2022-09-09T04:30:24;97131.69;;;15.32;78.06
35649;BME280;21768;48.562;13.414;2022-09-09T04:32:50;97136.88;;;15.36;77.88
35649;BME280;21768;48.562;13.414;2022-09-09T04:35:15;97134.41;;;15.37;77.76
35649;BME280;21768;48.562;13.414;2022-09-09T04:37:41;97145.44;;;15.38;77.68
35649;BME280;21768;48.562;13.414;2022-09-09T04:40:07;97147.91;;;15.36;77.78
35649;BME280;21768;48.562;13.414;2022-09-09T04:42:35;97134.41;;;15.37;77.68
35649;BME280;21768;48.562;13.414;2022-09-09T04:45:02;97133.78;;;15.43;77.65
35649;BME280;21768;48.562;13.414;2022-09-09T04:47:27;97132.19;;;15.45;77.49
35649;BME280;21768;48.562;13.414;2022-09-09T04:49:53;97136.47;;;15.46;77.37
35649;BME280;21768;48.562;13.414;2022-09-09T04:52:20;97128.84;;;15.46;77.47
35649;BME280;21768;48.562;13.414;2022-09-09T04:54:45;97125.50;;;15.47;77.49
35649;BME280;21768;48.562;13.414;2022-09-09T04:57:11;97133.00;;;15.44;77.27
35649;BME280;21768;48.562;13.414;2022-09-09T04:59:37;97143.84;;;15.40;77.42
35649;BME280;21768;48.562;13.414;2022-09-09T05:02:04;97143.16;;;15.44;77.39
35649;BME280;21768;48.562;13.414;2022-09-09T05:04:29;97138.16;;;15.45;76.87
35649;BME280;21768;48.562;13.414;2022-09-09T05:06:55;97144.22;;;15.49;77.25
35649;BME280;21768;48.562;13.414;2022-09-09T05:09:20;97153.53;;;15.48;77.23
35649;BME280;21768;48.562;13.414;2022-09-09T05:11:46;97146.84;;;15.50;77.11
35649;BME280;21768;48.562;13.414;2022-09-09T05:14:11;97154.53;;;15.52;76.95
35649;BME280;21768;48.562;13.414;2022-09-09T05:16:37;97139.28;;;15.52;76.92
35649;BME280;21768;48.562;13.414;2022-09-09T05:19:03;97150.44;;;15.55;77.09
35649;BME280;21768;48.562;13.414;2022-09-09T05:21:29;97162.97;;;15.51;76.98
35649;BME280;21768;48.562;13.414;2022-09-09T05:23:56;97168.19;;;15.54;76.88
35649;BME280;21768;48.562;13.414;2022-09-09T05:26:22;97162.97;;;15.51;76.68
35649;BME280;21768;48.562;13.414;2022-09-09T05:28:48;97156.94;;;15.49;76.91
35649;BME280;21768;48.562;13.414;2022-09-09T05:31:14;97151.06;;;15.50;77.00
35649;BME280;21768;48.562;13.414;2022-09-09T05:33:42;97146.25;;;15.56;76.83
35649;BME280;21768;48.562;13.414;2022-09-09T05:36:13;97148.16;;;15.61;76.82
35649;BME280;21768;48.562;13.414;2022-09-09T05:38:39;97159.13;;;15.60;76.42
35649;BME280;21768;48.562;13.414;2022-09-09T05:41:06;97161.75;;;15.62;76.36
35649;BME280;21768;48.562;13.414;2022-09-09T05:43:32;97169.31;;;15.60;76.22
35649;BME280;21768;48.562;13.414;2022-09-09T05:46:05;97156.56;;;15.59;76.37
35649;BME280;21768;48.562;13.414;2022-09-09T05:48:33;97165.88;;;15.58;76.25
35649;BME280;21768;48.562;13.414;2022-09-09T05:50:59;97167.53;;;15.58;76.52
35649;BME280;21768;48.562;13.414;2022-09-09T05:53:26;97159.91;;;15.58;76.48
35649;BME280;21768;48.562;13.414;2022-09-09T05:56:06;97165.97;;;15.61;76.32
35649;BME280;21768;48.562;13.414;2022-09-09T05:58:34;97167.03;;;15.67;75.96
35649;BME280;21768;48.562;13.414;2022-09-09T06:01:04;97165.63;;;15.73;75.89
35649;BME280;21768;48.562;13.414;2022-09-09T06:03:35;97165.88;;;15.79;75.36
35649;BME280;21768;48.562;13.414;2022-09-09T06:06:03;97169.34;;;15.81;75.79
35649;BME280;21768;48.562;13.414;2022-09-09T06:08:36;97160.78;;;15.79;75.82
35649;BME280;21768;48.562;13.414;2022-09-09T06:11:04;97153.28;;;15.82;75.58
35649;BME280;21768;48.562;13.414;2022-09-09T06:13:31;97149.22;;;15.87;75.69
35649;BME280;21768;48.562;13.414;2022-09-09T06:15:56;97149.47;;;15.93;75.80
35649;BME280;21768;48.562;13.414;2022-09-09T06:18:24;97151.34;;;15.97;75.64
35649;BME280;21768;48.562;13.414;2022-09-09T06:20:56;97159.16;;;16.02;75.66
35649;BME280;21768;48.562;13.414;2022-09-09T06:23:23;97148.25;;;16.05;75.73
35649;BME280;21768;48.562;13.414;2022-09-09T06:25:48;97155.16;;;16.09;75.77
35649;BME280;21768;48.562;13.414;2022-09-09T06:28:14;97166.34;;;16.12;75.47
35649;BME280;21768;48.562;13.414;2022-09-09T06:30:40;97160.44;;;16.13;75.69
35649;BME280;21768;48.562;13.414;2022-09-09T06:33:06;97153.78;;;16.17;75.20
35649;BME280;21768;48.562;13.414;2022-09-09T06:35:32;97145.72;;;16.27;75.26
35649;BME280;21768;48.562;13.414;2022-09-09T06:37:57;97148.53;;;16.34;75.45
35649;BME280;21768;48.562;13.414;2022-09-09T06:40:24;97146.97;;;16.38;75.34
35649;BME280;21768;48.562;13.414;2022-09-09T06:42:49;97154.91;;;16.46;75.26
35649;BME280;21768;48.562;13.414;2022-09-09T06:45:15;97151.97;;;16.57;74.97
35649;BME280;21768;48.562;13.414;2022-09-09T06:47:40;97151.25;;;16.61;75.07
35649;BME280;21768;48.562;13.414;2022-09-09T06:50:06;97142.97;;;16.65;74.83
35649;BME280;21768;48.562;13.414;2022-09-09T06:52:32;97152.44;;;16.70;74.78
35649;BME280;21768;48.562;13.414;2022-09-09T06:54:58;97150.09;;;16.74;74.34
35649;BME280;21768;48.562;13.414;2022-09-09T06:57:24;97150.38;;;16.82;74.61
35649;BME280;21768;48.562;13.414;2022-09-09T06:59:49;97163.44;;;16.91;74.36
35649;BME280;21768;48.562;13.414;2022-09-09T07:02:15;97173.03;;;16.98;73.80
35649;BME280;21768;48.562;13.414;2022-09-09T07:04:41;97174.78;;;16.99;73.83
35649;BME280;21768;48.562;13.414;2022-09-09T07:07:06;97175.59;;;16.98;74.12
35649;BME280;21768;48.562;13.414;2022-09-09T07:09:33;97174.78;;;16.99;73.92
35649;BME280;21768;48.562;13.414;2022-09-09T07:11:58;97162.03;;;16.99;73.45
35649;BME280;21768;48.562;13.414;2022-09-09T07:14:24;97161.22;;;17.00;74.00
35649;BME280;21768;48.562;13.414;2022-09-09T07:16:50;97162.03;;;16.99;73.67
35649;BME280;21768;48.562;13.414;2022-09-09T07:19:16;97169.78;;;17.02;73.59
35649;BME280;21768;48.562;13.414;2022-09-09T07:21:42;97172.59;;;17.10;73.60
35649;BME280;21768;48.562;13.414;2022-09-09T07:24:08;97166.63;;;17.09;73.61
35649;BME280;21768;48.562;13.414;2022-09-09T07:26:35;97156.34;;;17.06;74.11
35649;BME280;21768;48.562;13.414;2022-09-09T07:29:01;97164.19;;;17.12;73.90
35649;BME280;21768;48.562;13.414;2022-09-09T07:31:29;97168.69;;;17.19;73.79
35649;BME280;21768;48.562;13.414;2022-09-09T07:33:59;97176.69;;;17.28;73.50
35649;BME280;21768;48.562;13.414;2022-09-09T07:36:32;97181.91;;;17.33;73.45
35649;BME280;21768;48.562;13.414;2022-09-09T07:39:00;97188.00;;;17.37;73.17
35649;BME280;21768;48.562;13.414;2022-09-09T07:43:57;97194.78;;;17.36;72.61
35649;BME280;21768;48.562;13.414;2022-09-09T07:46:25;97194.91;;;17.39;72.25
35649;BME280;21768;48.562;13.414;2022-09-09T07:48:55;97206.09;;;17.43;72.08
35649;BME280;21768;48.562;13.414;2022-09-09T07:51:41;97213.94;;;17.49;72.16
35649;BME280;21768;48.562;13.414;2022-09-09T07:54:09;97216.72;;;17.55;71.44
35649;BME280;21768;48.562;13.414;2022-09-09T07:56:36;97217.03;;;17.64;71.62
35649;BME280;21768;48.562;13.414;2022-09-09T07:59:03;97209.63;;;17.70;70.97
35649;BME280;21768;48.562;13.414;2022-09-09T08:01:33;97208.09;;;17.75;71.27
35649;BME280;21768;48.562;13.414;2022-09-09T08:04:02;97194.63;;;17.79;71.83
35649;BME280;21768;48.562;13.414;2022-09-09T08:06:31;97183.69;;;17.83;71.98
35649;BME280;21768;48.562;13.414;2022-09-09T08:08:58;97177.03;;;17.88;71.90
35649;BME280;21768;48.562;13.414;2022-09-09T08:11:25;97181.34;;;17.89;71.75
35649;BME280;21768;48.562;13.414;2022-09-09T08:13:51;97187.34;;;17.91;71.40
35649;BME280;21768;48.562;13.414;2022-09-09T08:16:19;97185.72;;;17.93;70.96
35649;BME280;21768;48.562;13.414;2022-09-09T08:18:52;97182.34;;;17.94;70.85
35649;BME280;21768;48.562;13.414;2022-09-09T08:21:23;97179.81;;;17.94;71.22
35649;BME280;21768;48.562;13.414;2022-09-09T08:23:51;97181.59;;;17.97;71.04
35649;BME280;21768;48.562;13.414;2022-09-09T08:26:22;97176.78;;;18.06;70.90
35649;BME280;21768;48.562;13.414;2022-09-09T08:28:52;97182.28;;;18.18;70.33
35649;BME280;21768;48.562;13.414;2022-09-09T08:31:21;97186.91;;;18.30;69.78
35649;BME280;21768;48.562;13.414;2022-09-09T08:33:47;97194.78;;;18.38;69.71
35649;BME280;21768;48.562;13.414;2022-09-09T08:36:18;97200.78;;;18.38;69.61
35649;BME280;21768;48.562;13.414;2022-09-09T08:38:47;97205.16;;;18.42;69.72
35649;BME280;21768;48.562;13.414;2022-09-09T08:44:31;97209.19;;;18.61;69.68
35649;BME280;21768;48.562;13.414;2022-09-09T08:57:56;97224.47;;;18.88;69.02
35649;BME280;21768;48.562;13.414;2022-09-09T09:05:54;97211.97;;;18.97;68.95
35649;BME280;21768;48.562;13.414;2022-09-09T09:08:27;97213.28;;;19.13;68.20
35649;BME280;21768;48.562;13.414;2022-09-09T09:10:57;97218.66;;;19.22;67.78
35649;BME280;21768;48.562;13.414;2022-09-09T09:19:02;97223.72;;;19.20;67.56
35649;BME280;21768;48.562;13.414;2022-09-09T09:22:04;97223.72;;;19.20;67.23
35649;BME280;21768;48.562;13.414;2022-09-09T09:27:13;97219.97;;;19.09;67.55
35649;BME280;21768;48.562;13.414;2022-09-09T09:29:40;97227.94;;;19.18;67.60
35649;BME280;21768;48.562;13.414;2022-09-09T09:32:13;97233.28;;;19.26;68.28
35649;BME280;21768;48.562;13.414;2022-09-09T09:34:41;97231.72;;;19.32;67.88
35649;BME280;21768;48.562;13.414;2022-09-09T09:37:16;97239.63;;;19.40;67.87
35649;BME280;21768;48.562;13.414;2022-09-09T09:39:45;97232.91;;;19.44;68.10
35649;BME280;21768;48.562;13.414;2022-09-09T09:42:12;97232.41;;;19.55;68.26
35649;BME280;21768;48.562;13.414;2022-09-09T09:44:42;97238.50;;;19.60;67.77
35649;BME280;21768;48.562;13.414;2022-09-09T09:47:10;97236.91;;;19.64;67.14
35649;BME280;21768;48.562;13.414;2022-09-09T09:49:37;97241.34;;;19.69;66.49
35649;BME280;21768;48.562;13.414;2022-09-09T09:52:04;97242.19;;;19.70;65.70
35649;BME280;21768;48.562;13.414;2022-09-09T09:54:33;97243.75;;;19.65;66.64
35649;BME280;21768;48.562;13.414;2022-09-09T09:57:14;97241.28;;;19.68;67.58
35649;BME280;21768;48.562;13.414;2022-09-09T09:59:41;97241.34;;;19.69;67.04
35649;BME280;21768;48.562;13.414;2022-09-09T10:04:44;97245.75;;;19.45;67.50
35649;BME280;21768;48.562;13.414;2022-09-09T10:07:28;97244.47;;;19.31;67.91
35649;BME280;21768;48.562;13.414;2022-09-09T10:09:57;97249.53;;;19.28;68.40
35649;BME280;21768;48.562;13.414;2022-09-09T10:12:47;97256.50;;;19.33;68.36
35649;BME280;21768;48.562;13.414;2022-09-09T10:15:44;97261.47;;;19.27;69.36
35649;BME280;21768;48.562;13.414;2022-09-09T10:21:24;97280.50;;;19.09;69.21
35649;BME280;21768;48.562;13.414;2022-09-09T10:27:03;97288.63;;;18.95;70.03
35649;BME280;21768;48.562;13.414;2022-09-09T10:32:33;97279.28;;;18.96;70.56
35649;BME280;21768;48.562;13.414;2022-09-09T10:38:12;97288.75;;;18.72;69.98
35649;BME280;21768;48.562;13.414;2022-09-09T10:52:09;97278.59;;;18.48;70.09
35649;BME280;21768;48.562;13.414;2022-09-09T10:54:53;97279.91;;;18.36;69.93
35649;BME280;21768;48.562;13.414;2022-09-09T10:57:33;97281.44;;;18.31;70.30
35649;BME280;21768;48.562;13.414;2022-09-09T11:00:37;97280.63;;;18.31;70.81
35649;BME280;21768;48.562;13.414;2022-09-09T11:03:04;97290.03;;;18.33;71.07
35649;BME280;21768;48.562;13.414;2022-09-09T11:08:21;97284.88;;;18.32;71.99
35649;BME280;21768;48.562;13.414;2022-09-09T11:10:56;97284.06;;;18.33;72.17
35649;BME280;21768;48.562;13.414;2022-09-09T11:13:31;97276.31;;;18.30;72.01
35649;BME280;21768;48.562;13.414;2022-09-09T11:16:16;97266.13;;;18.31;72.76
35649;BME280;21768;48.562;13.414;2022-09-09T11:18:45;97272.09;;;18.32;72.55
35649;BME280;21768;48.562;13.414;2022-09-09T11:21:23;97268.59;;;18.28;72.29
35649;BME280;21768;48.562;13.414;2022-09-09T11:23:59;97263.34;;;18.24;73.22
35649;BME280;21768;48.562;13.414;2022-09-09T11:26:33;97270.19;;;18.25;73.70
35649;BME280;21768;48.562;13.414;2022-09-09T11:42:35;97262.81;;;18.09;73.80
35649;BME280;21768;48.562;13.414;2022-09-09T11:45:23;97251.66;;;18.05;73.83
35649;BME280;21768;48.562;13.414;2022-09-09T11:47:52;97255.78;;;18.01;74.02
35649;BME280;21768;48.562;13.414;2022-09-09T11:52:46;97264.38;;;18.04;74.87
35649;BME280;21768;48.562;13.414;2022-09-09T11:55:34;97269.53;;;18.05;74.30
35649;BME280;21768;48.562;13.414;2022-09-09T12:00:48;97269.47;;;18.04;74.18
35649;BME280;21768;48.562;13.414;2022-09-09T12:06:00;97273.59;;;18.00;74.52
35649;BME280;21768;48.562;13.414;2022-09-09T12:08:35;97269.38;;;18.00;75.09
35649;BME280;21768;48.562;13.414;2022-09-09T12:11:02;97269.56;;;18.07;75.10
35649;BME280;21768;48.562;13.414;2022-09-09T12:13:29;97269.00;;;18.15;75.02
35649;BME280;21768;48.562;13.414;2022-09-09T12:15:58;97264.88;;;18.19;74.92
35649;BME280;21768;48.562;13.414;2022-09-09T12:18:35;97265.78;;;18.21;74.38
35649;BME280;21768;48.562;13.414;2022-09-09T12:23:52;97260.06;;;18.28;74.42
35649;BME280;21768;48.562;13.414;2022-09-09T12:26:29;97262.09;;;18.38;74.45
35649;BME280;21768;48.562;13.414;2022-09-09T12:36:44;97253.13;;;18.51;73.66
35649;BME280;21768;48.562;13.414;2022-09-09T12:39:26;97243.88;;;18.54;74.38
35649;BME280;21768;48.562;13.414;2022-09-09T12:41:53;97244.78;;;18.56;74.26
35649;BME280;21768;48.562;13.414;2022-09-09T12:44:23;97247.38;;;18.58;74.33
35649;BME280;21768;48.562;13.414;2022-09-09T12:46:50;97243.97;;;18.57;74.29
35649;BME280;21768;48.562;13.414;2022-09-09T12:49:35;97251.50;;;18.53;74.25
35649;BME280;21768;48.562;13.414;2022-09-09T12:52:14;97250.63;;;18.52;74.01
35649;BME280;21768;48.562;13.414;2022-09-09T12:54:44;97245.44;;;18.49;74.34
35649;BME280;21768;48.562;13.414;2022-09-09T12:57:13;97245.44;;;18.49;74.51
35649;BME280;21768;48.562;13.414;2022-09-09T12:59:41;97243.69;;;18.48;74.11
35649;BME280;21768;48.562;13.414;2022-09-09T13:02:25;97241.28;;;18.53;74.33
35649;BME280;21768;48.562;13.414;2022-09-09T13:04:52;97227.81;;;18.58;74.12
35649;BME280;21768;48.562;13.414;2022-09-09T13:07:19;97227.03;;;18.59;73.82
35649;BME280;21768;48.562;13.414;2022-09-09T13:09:46;97238.97;;;18.60;73.86
35649;BME280;21768;48.562;13.414;2022-09-09T13:12:15;97237.38;;;18.64;74.05
35649;BME280;21768;48.562;13.414;2022-09-09T13:14:44;97236.53;;;18.63;73.82
35649;BME280;21768;48.562;13.414;2022-09-09T13:17:18;97231.56;;;18.68;73.80
35649;BME280;21768;48.562;13.414;2022-09-09T13:19:45;97230.84;;;18.72;73.75
35649;BME280;21768;48.562;13.414;2022-09-09T13:24:44;97231.78;;;18.76;73.85
35649;BME280;21768;48.562;13.414;2022-09-09T13:27:28;97220.84;;;18.80;73.99
35649;BME280;21768;48.562;13.414;2022-09-09T13:29:55;97224.56;;;18.91;73.54
35649;BME280;21768;48.562;13.414;2022-09-09T13:32:22;97213.66;;;18.96;73.39
35649;BME280;21768;48.562;13.414;2022-09-09T13:34:56;97208.72;;;19.02;73.02
35649;BME280;21768;48.562;13.414;2022-09-09T13:39:51;97201.47;;;19.18;71.92
35649;BME280;21768;48.562;13.414;2022-09-09T13:42:40;97198.25;;;19.23;72.04
35649;BME280;21768;48.562;13.414;2022-09-09T13:45:18;97188.97;;;19.27;71.65
35649;BME280;21768;48.562;13.414;2022-09-09T13:47:47;97191.09;;;19.43;70.54
35649;BME280;21768;48.562;13.414;2022-09-09T13:50:25;97187.19;;;19.54;70.44
35649;BME280;21768;48.562;13.414;2022-09-09T13:52:56;97188.22;;;19.62;70.42
35649;BME280;21768;48.562;13.414;2022-09-09T13:55:25;97186.56;;;19.64;70.91
35649;BME280;21768;48.562;13.414;2022-09-09T13:58:01;97190.56;;;19.53;71.41
35649;BME280;21768;48.562;13.414;2022-09-09T14:00:29;97186.91;;;19.45;70.99
35649;BME280;21768;48.562;13.414;2022-09-09T14:02:55;97187.75;;;19.46;71.72
35649;BME280;21768;48.562;13.414;2022-09-09T14:05:21;97186.22;;;19.51;71.39
35649;BME280;21768;48.562;13.414;2022-09-09T14:07:48;97176.78;;;19.50;71.44
35649;BME280;21768;48.562;13.414;2022-09-09T14:10:14;97178.25;;;19.42;71.04
35649;BME280;21768;48.562;13.414;2022-09-09T14:12:40;97174.84;;;19.41;71.34
35649;BME280;21768;48.562;13.414;2022-09-09T14:15:07;97175.91;;;19.49;71.02
35649;BME280;21768;48.562;13.414;2022-09-09T14:17:35;97189.75;;;19.56;70.83
35649;BME280;21768;48.562;13.414;2022-09-09T14:20:03;97192.47;;;19.62;70.13
35649;BME280;21768;48.562;13.414;2022-09-09T14:22:31;97187.53;;;19.68;70.01
35649;BME280;21768;48.562;13.414;2022-09-09T14:24:57;97186.94;;;19.78;70.16
35649;BME280;21768;48.562;13.414;2022-09-09T14:27:22;97184.59;;;19.87;71.59
35649;BME280;21768;48.562;13.414;2022-09-09T14:29:48;97184.56;;;19.86;70.57
35649;BME280;21768;48.562;13.414;2022-09-09T14:32:13;97174.34;;;19.87;71.02
35649;BME280;21768;48.562;13.414;2022-09-09T14:34:38;97169.50;;;19.98;71.08
35649;BME280;21768;48.562;13.414;2022-09-09T14:37:04;97172.13;;;19.99;70.19
35649;BME280;21768;48.562;13.414;2022-09-09T14:39:29;97173.66;;;19.93;69.04
35649;BME280;21768;48.562;13.414;2022-09-09T14:41:55;97166.84;;;19.93;69.15
35649;BME280;21768;48.562;13.414;2022-09-09T14:44:21;97165.03;;;19.89;69.14
35649;BME280;21768;48.562;13.414;2022-09-09T14:46:46;97177.75;;;19.86;69.84
35649;BME280;21768;48.562;13.414;2022-09-09T14:49:12;97171.06;;;19.91;69.28
35649;BME280;21768;48.562;13.414;2022-09-09T14:51:38;97169.50;;;19.98;69.45
35649;BME280;21768;48.562;13.414;2022-09-09T14:54:04;97164.72;;;20.12;69.57
35649;BME280;21768;48.562;13.414;2022-09-09T14:56:32;97176.00;;;20.20;68.90
35649;BME280;21768;48.562;13.414;2022-09-09T14:59:00;97175.38;;;20.30;68.86
35649;BME280;21768;48.562;13.414;2022-09-09T15:01:30;97179.69;;;20.31;69.12
35649;BME280;21768;48.562;13.414;2022-09-09T15:04:00;97173.78;;;20.35;69.21
35649;BME280;21768;48.562;13.414;2022-09-09T15:06:28;97181.66;;;20.41;69.03
35649;BME280;21768;48.562;13.414;2022-09-09T15:08:54;97176.66;;;20.46;68.43
35649;BME280;21768;48.562;13.414;2022-09-09T15:11:25;97174.59;;;20.32;67.85
35649;BME280;21768;48.562;13.414;2022-09-09T15:13:52;97171.13;;;20.29;67.92
35649;BME280;21768;48.562;13.414;2022-09-09T15:16:21;97172.06;;;20.34;67.91
35649;BME280;21768;48.562;13.414;2022-09-09T15:18:50;97166.28;;;20.41;69.04
35649;BME280;21768;48.562;13.414;2022-09-09T15:21:19;97163.59;;;20.36;67.68
35649;BME280;21768;48.562;13.414;2022-09-09T15:23:45;97157.34;;;20.61;67.43